createdAt,value
2022-12-27T00:16:40.280Z,95.73
2022-12-27T00:46:40.232Z,94.01
2022-12-27T01:16:40.300Z,94.12
2022-12-27T01:46:40.264Z,93.77
2022-12-27T02:16:40.371Z,93.65
2022-12-27T02:46:40.321Z,93.52
2022-12-27T03:16:40.271Z,93.29
2022-12-27T03:46:40.309Z,92.01
2022-12-27T04:16:40.277Z,92.26
2022-12-27T04:46:40.330Z,92.97
2022-12-27T05:16:40.273Z,91.68
2022-12-27T05:46:40.304Z,91.13
2022-12-27T06:16:40.346Z,91.62
2022-12-27T06:46:40.303Z,91.41
2022-12-27T07:16:40.393Z,91.99
2022-12-27T07:46:40.302Z,93.66
2022-12-27T08:16:40.340Z,95.27
2022-12-27T08:46:40.351Z,95.07
2022-12-27T09:16:40.317Z,95.95
2022-12-27T09:46:40.373Z,97.18
2022-12-27T10:16:40.312Z,95.22
2022-12-27T10:46:40.376Z,94.15
2022-12-27T11:16:40.448Z,92.26
2022-12-27T11:46:40.452Z,90.81
2022-12-27T12:16:40.359Z,88.76
2022-12-27T12:46:40.347Z,87.75
2022-12-27T13:16:40.403Z,86.47
2022-12-27T13:46:42.717Z,86.45
2022-12-27T14:16:40.352Z,86.21
2022-12-27T14:46:40.454Z,85.98
2022-12-27T15:16:40.342Z,85.89
2022-12-27T15:46:40.358Z,85.74
2022-12-27T16:16:40.399Z,86.12
2022-12-27T16:46:40.372Z,86.58
2022-12-27T17:16:40.389Z,86.79
2022-12-27T17:46:40.365Z,87.11
2022-12-27T18:16:40.494Z,87.23
2022-12-27T18:46:40.398Z,87.4
2022-12-27T19:16:40.397Z,87.48
2022-12-27T19:46:40.396Z,87.68
2022-12-27T20:16:40.491Z,87.85
2022-12-27T20:46:40.407Z,87.67
2022-12-27T21:16:40.472Z,88.4
2022-12-27T21:46:40.469Z,88.24
2022-12-27T22:16:40.430Z,88.33
2022-12-27T23:16:40.442Z,88.71
2022-12-27T23:46:40.487Z,88.68
